Data for 04/25/2010

Time Sea-Level Adjusted Pressure Absolute Pressure Temperature Relative Humidity Dew Point   
(mb) (inHg) (mb) (inHg) (C) (F) (%) (C) (F)
00:05 1018 30.06 847 25.01 5.5 41.8 40 -7.1 19.3
00:10 1018 30.06 847 25.01 5.4 41.7 40 -7.1 19.1
00:15 1018 30.06 847 25.01 5.4 41.7 38 -7.8 18
00:20 1018 30.06 847 25.01 5.3 41.5 38 -7.9 17.7
00:25 1018 30.06 847 25.01 5.2 41.4 36 -8.7 16.3
00:30 1018 30.06 847 25.01 5.2 41.3 36 -8.6 16.6
00:35 1018 30.06 847 25.01 5.1 41.2 36 -8.7 16.3
00:40 1018 30.06 847 25.01 5 40.9 36 -8.8 16.1
00:45 1018 30.06 847 25.01 4.9 40.7 36 -8.9 16
00:50 1018 30.06 847 25.01 4.8 40.6 38 -8.4 16.8
00:55 1018 30.06 848 25.04 4.8 40.6 37 -8.7 16.4
01:00 1018 30.06 848 25.04 4.7 40.4 37 -8.9 16
01:05 1018 30.06 848 25.04 4.6 40.4 37 -8.7 16.3
01:10 1018 30.06 848 25.04 4.6 40.3 38 -8.6 16.5
01:15 1019 30.09 848 25.04 4.6 40.3 38 -8.6 16.6
01:20 1019 30.09 848 25.04 4.6 40.2 37 -8.8 16.1
01:25 1019 30.09 848 25.04 4.5 40.2 37 -8.8 16.1
01:30 1019 30.09 848 25.04 4.5 40 38 -8.6 16.6
01:35 1019 30.09 848 25.04 4.4 40 39 -8.2 17.2
01:40 1019 30.09 848 25.04 4.3 39.8 39 -8.3 17.1
01:45 1019 30.09 848 25.04 4.3 39.7 37 -9.2 15.4
01:50 1019 30.09 848 25.04 4.2 39.6 36 -9.4 15
01:55 1019 30.09 848 25.04 4.2 39.5 37 -9.4 15.1
02:00 1019 30.09 848 25.04 4.2 39.5 38 -8.8 16.2
02:05 1019 30.09 848 25.04 4.2 39.6 40 -8.4 16.9
02:10 1019 30.09 848 25.04 4.1 39.4 37 -9.3 15.2
02:15 1019 30.09 848 25.04 4 39.2 36 -9.6 14.7
02:20 1019 30.09 848 25.04 3.9 39 37 -9.5 15
02:25 1019 30.09 848 25.04 3.8 38.8 38 -9.3 15.3
02:30 1019 30.09 848 25.04 3.7 38.6 37 -9.8 14.3
02:35 1019 30.09 848 25.04 3.7 38.6 37 -9.8 14.3
02:40 1019 30.09 848 25.04 3.6 38.5 35 -10.3 13.4
02:45 1019 30.09 848 25.04 3.6 38.4 34 -11 12.2
02:50 1019 30.09 848 25.04 3.5 38.3 35 -10.7 12.8
02:55 1019 30.09 848 25.04 3.4 38.2 34 -11.1 11.9
03:00 1019 30.09 848 25.04 3.4 38.1 36 -10.2 13.6
03:05 1019 30.09 848 25.04 3.1 37.6 39 -9.5 14.8
03:10 1019 30.09 848 25.04 2.8 37.1 40 -9.6 14.7
03:15 1019 30.09 848 25.04 2.7 36.9 41 -9.3 15.2
03:20 1019 30.09 848 25.04 2.5 36.6 44 -8.6 16.5
03:25 1019 30.09 848 25.04 2.4 36.3 41 -9.6 14.8
03:30 1019 30.09 848 25.04 2.4 36.3 36 -11.2 11.9
03:35 1019 30.09 848 25.04 2.5 36.5 39 -10.1 13.8
03:40 1019 30.09 848 25.04 2.4 36.3 44 -8.7 16.3
03:45 1019 30.09 848 25.04 2.1 35.9 54 -6.1 20.9
03:50 1019 30.09 848 25.04 1.8 35.2 59 -5.5 22.2
03:55 1019 30.09 849 25.07 1.7 35 59 -5.6 21.9
04:00 1019 30.09 849 25.07 1.6 34.8 55 -6.5 20.3
04:05 1019 30.09 849 25.07 1.6 34.9 51 -7.4 18.7
04:10 1019 30.09 849 25.07 1.6 34.9 50 -7.6 18.3
04:15 1019 30.09 849 25.07 1.6 34.9 49 -8.1 17.4
04:20 1020 30.12 849 25.07 1.5 34.7 49 -8 17.6
04:25 1020 30.12 849 25.07 1.4 34.5 49 -8.3 17.1
04:30 1020 30.12 849 25.07 1.3 34.4 47 -8.8 16.2
04:35 1020 30.12 849 25.07 1.3 34.3 46 -9.1 15.6
04:40 1020 30.12 849 25.07 1.4 34.4 44 -9.5 15
04:45 1020 30.12 849 25.07 1.4 34.4 47 -8.8 16.1
04:50 1020 30.12 849 25.07 1.1 34.1 47 -8.8 16.1
04:55 1020 30.12 849 25.07 1 33.8 45 -9.7 14.5
05:00 1020 30.12 849 25.07 1.1 34 43 -10 13.9
05:05 1020 30.12 849 25.07 1.2 34.1 42 -10.2 13.6
05:10 1020 30.12 849 25.07 1.1 34 44 -9.8 14.3
05:15 1020 30.12 849 25.07 0.8 33.4 46 -9.4 15
05:20 1020 30.12 849 25.07 0.5 32.9 47 -9.6 14.8
05:25 1020 30.12 849 25.07 0.4 32.8 47 -9.7 14.5
05:30 1020 30.12 849 25.07 0.5 32.9 47 -9.7 14.6
05:35 1020 30.12 849 25.07 0.5 32.9 47 -9.6 14.7
05:40 1020 30.12 849 25.07 0.3 32.5 48 -9.5 14.9
05:45 1020 30.12 849 25.07 0.2 32.4 48 -9.6 14.8
05:50 1020 30.12 849 25.07 0.3 32.6 46 -10.1 13.8
05:55 1020 30.12 849 25.07 0.5 33 45 -10 14
06:00 1020 30.12 849 25.07 0.5 32.9 46 -9.8 14.3
06:05 1020 30.12 849 25.07 0.3 32.6 47 -9.7 14.6
06:10 1020 30.12 849 25.07 0.3 32.5 48 -9.6 14.8
06:15 1020 30.12 849 25.07 0.2 32.4 48 -9.6 14.7
06:20 1020 30.12 849 25.07 0.3 32.5 48 -9.6 14.7
06:25 1020 30.12 849 25.07 0.4 32.7 46 -9.8 14.3
06:30 1020 30.12 850 25.1 0.4 32.7 45 -10.1 13.9
06:35 1020 30.12 850 25.1 0.4 32.8 46 -9.8 14.4
06:40 1020 30.12 850 25.1 0.5 32.8 46 -10 14
06:45 1020 30.12 850 25.1 0.6 33.1 45 -10.1 13.9
06:50 1020 30.12 850 25.1 0.9 33.6 44 -10.1 13.9
06:55 1021 30.15 850 25.1 1.1 34 43 -10.1 13.8
07:00 1021 30.15 850 25.1 1.4 34.6 43 -9.9 14.3
07:05 1021 30.15 850 25.1 1.4 34.4 44 -9.7 14.5
07:10 1021 30.15 850 25.1 1.4 34.6 41 -10.4 13.3
07:15 1021 30.15 850 25.1 1.7 35 41 -10.2 13.7
07:20 1021 30.15 850 25.1 1.5 34.7 43 -9.8 14.3
07:25 1021 30.15 850 25.1 1.3 34.4 44 -9.7 14.6
07:30 1021 30.15 850 25.1 1.4 34.5 43 -9.8 14.4
07:35 1021 30.15 850 25.1 1.4 34.6 42 -10 14
07:40 1021 30.15 850 25.1 1.4 34.6 43 -9.8 14.4
07:45 1021 30.15 850 25.1 1.5 34.6 44 -9.5 14.8
07:50 1021 30.15 850 25.1 1.6 34.8 44 -9.5 15
07:55 1021 30.15 850 25.1 1.5 34.8 43 -9.7 14.5
08:00 1021 30.15 851 25.13 1.4 34.5 45 -9.3 15.2
08:05 1021 30.15 851 25.13 1.5 34.8 45 -9.1 15.6
08:10 1021 30.15 851 25.13 1.6 34.9 45 -9.2 15.5
08:15 1021 30.15 851 25.13 2 35.7 42 -9.5 15
08:20 1021 30.15 851 25.13 2.5 36.6 42 -9.1 15.6
08:25 1022 30.18 851 25.13 2.2 36 42 -9.3 15.2
08:30 1022 30.18 851 25.13 2.3 36.2 42 -9.5 15
08:35 1022 30.18 851 25.13 2.7 36.8 41 -9.3 15.2
08:40 1022 30.18 851 25.13 2.7 36.9 41 -9.3 15.3
08:45 1022 30.18 851 25.13 2.8 37.1 40 -9.4 15.1
08:50 1022 30.18 851 25.13 3.1 37.6 40 -9.1 15.6
08:55 1022 30.18 851 25.13 3.1 37.5 40 -9.2 15.5
09:00 1022 30.18 851 25.13 3 37.3 40 -9.5 14.9
09:05 1022 30.18 851 25.13 3 37.4 40 -9.4 15.1
09:10 1022 30.18 851 25.13 3 37.4 41 -9.1 15.7
09:15 1022 30.18 851 25.13 2.9 37.3 40 -9.2 15.4
09:20 1022 30.18 851 25.13 2.9 37.2 42 -8.9 16
09:25 1022 30.18 851 25.13 2.9 37.2 43 -8.6 16.5
09:30 1022 30.18 851 25.13 3.1 37.5 42 -8.6 16.6
09:35 1022 30.18 851 25.13 3.1 37.7 39 -9.4 15.1
09:40 1022 30.18 851 25.13 3.2 37.8 40 -9 15.8
09:45 1022 30.18 851 25.13 3.5 38.3 39 -9.1 15.6
09:50 1022 30.18 851 25.13 3.5 38.4 38 -9.4 15.1
09:55 1022 30.18 851 25.13 3.5 38.3 38 -9.6 14.8
10:00 1022 30.18 851 25.13 3.7 38.7 38 -9.4 15.1
10:05 1022 30.18 851 25.13 3.9 39.1 36 -9.7 14.6
10:10 1022 30.18 851 25.13 4.1 39.3 36 -9.8 14.4
10:15 1022 30.18 851 25.13 4.2 39.5 35 -9.8 14.3
10:20 1022 30.18 851 25.13 4.4 39.9 36 -9.5 14.9
10:25 1022 30.18 851 25.13 4.5 40.1 35 -9.8 14.3
10:30 1022 30.18 851 25.13 4.3 39.7 36 -9.6 14.7
10:35 1022 30.18 851 25.13 4.1 39.3 36 -9.7 14.5
10:40 1022 30.18 851 25.13 4.9 40.8 34 -9.8 14.3
10:45 1022 30.18 851 25.13 5.3 41.6 35 -9 15.7
10:50 1022 30.18 851 25.13 5.5 41.9 31 -10.2 13.7
10:55 1022 30.18 851 25.13 5.7 42.3 32 -9.7 14.5
11:00 1022 30.18 851 25.13 6.4 43.5 31 -9.5 14.9
11:05 1022 30.18 851 25.13 5.1 41.2 34 -9.7 14.6
11:10 1022 30.18 851 25.13 4.6 40.3 35 -9.6 14.7
11:15 1022 30.18 851 25.13 4.4 40 34 -10.1 13.8
11:20 1022 30.18 851 25.13 4.9 40.7 33 -10 14
11:25 1022 30.18 851 25.13 4.9 40.9 33 -10 14.1
11:30 1022 30.18 851 25.13 5.3 41.5 33 -9.7 14.5
11:35 1022 30.18 851 25.13 5.7 42.2 33 -9.5 14.8
11:40 1022 30.18 851 25.13 5.5 41.8 32 -10 14
11:45 1022 30.18 851 25.13 6.1 43 29 -10.7 12.8
11:50 1022 30.18 851 25.13 6.2 43.2 29 -10.5 13.1
11:55 1022 30.18 851 25.13 5.8 42.5 30 -10.3 13.5
12:00 1022 30.18 851 25.13 5.5 41.9 31 -10.2 13.7
12:05 1022 30.18 851 25.13 5.6 42.1 33 -9.5 14.9
12:10 1022 30.18 851 25.13 5.6 42.1 34 -9.2 15.5
12:15 1022 30.18 851 25.13 5.3 41.6 34 -9.2 15.4
12:20 1022 30.18 851 25.13 5.5 41.8 33 -9.6 14.7
12:25 1022 30.18 851 25.13 5.9 42.6 30 -10.3 13.5
12:30 1022 30.18 851 25.13 6.4 43.6 28 -10.6 12.9
12:35 1022 30.18 851 25.13 7.2 44.9 29 -9.9 14.2
12:40 1022 30.18 851 25.13 6.2 43.2 31 -9.6 14.6
12:45 1022 30.18 851 25.13 6.5 43.7 31 -9.6 14.8
12:50 1022 30.18 851 25.13 6.4 43.5 31 -9.7 14.5
12:55 1022 30.18 851 25.13 7.1 44.7 29 -9.7 14.5
13:00 1022 30.18 851 25.13 7.2 45 31 -8.9 16
13:05 1022 30.18 851 25.13 6.4 43.5 33 -8.9 16.1
13:10 1022 30.18 851 25.13 6.8 44.2 31 -9 15.8
13:15 1022 30.18 851 25.13 7.5 45.4 30 -9 15.9
13:20 1022 30.18 851 25.13 8.1 46.5 27 -9.7 14.5
13:25 1022 30.18 851 25.13 8.5 47.2 26 -9.9 14.2
13:30 1022 30.18 851 25.13 8.5 47.2 26 -9.8 14.3
13:35 1022 30.18 851 25.13 8.3 46.9 27 -9.8 14.3
13:40 1022 30.18 851 25.13 8.9 48.1 25 -10 14.1
13:45 1022 30.18 851 25.13 8 46.3 31 -8.1 17.4
13:50 1022 30.18 851 25.13 6.5 43.7 37 -7 19.4
13:55 1022 30.18 851 25.13 6.2 43.2 38 -6.9 19.6
14:00 1022 30.18 851 25.13 6.4 43.5 35 -8 17.5
14:05 1022 30.18 851 25.13 6.9 44.5 28 -10.2 13.7
14:10 1022 30.18 851 25.13 7.8 46.1 27 -10.2 13.6
14:15 1022 30.18 851 25.13 7.9 46.3 26 -10.5 13.1
14:20 1022 30.18 851 25.13 8.2 46.7 24 -11.3 11.6
14:25 1022 30.18 851 25.13 8.4 47.2 22 -12.1 10.2
14:30 1022 30.18 851 25.13 9 48.1 22 -11.7 10.9
14:35 1022 30.18 851 25.13 9.1 48.3 21 -12.1 10.2
14:40 1022 30.18 851 25.13 9.6 49.3 20 -12.3 9.8
14:45 1022 30.18 851 25.13 9.7 49.4 21 -11.5 11.2
14:50 1021 30.15 851 25.13 10.4 50.8 20 -11.6 11.1
14:55 1021 30.15 851 25.13 9 48.2 24 -10.6 13
15:00 1022 30.18 851 25.13 8 46.3 25 -10.9 12.3
15:05 1022 30.18 851 25.13 7.9 46.1 25 -11.1 12
15:10 1021 30.15 851 25.13 7.7 45.9 25 -11 12.2
15:15 1022 30.18 851 25.13 7.7 45.9 26 -10.7 12.8
15:20 1021 30.15 851 25.13 8.1 46.7 25 -10.7 12.7
15:25 1021 30.15 851 25.13 9.4 48.9 23 -10.9 12.5
15:30 1021 30.15 851 25.13 8.8 47.8 24 -10.7 12.8
15:35 1021 30.15 851 25.13 8.7 47.7 24 -10.8 12.5
15:40 1021 30.15 851 25.13 8.1 46.5 24 -11.2 11.9
15:45 1021 30.15 851 25.13 8.1 46.6 24 -11.2 11.9
15:50 1021 30.15 851 25.13 8 46.5 25 -11 12.2
15:55 1022 30.18 851 25.13 7.5 45.5 26 -11 12.3
16:00 1022 30.18 851 25.13 7.4 45.3 26 -11.1 12
16:05 1022 30.18 851 25.13 7.8 46 26 -10.8 12.5
16:10 1022 30.18 851 25.13 7.8 46 25 -10.8 12.5
16:15 1021 30.15 851 25.13 7.7 45.8 26 -10.9 12.4
16:20 1021 30.15 851 25.13 8.8 47.8 23 -11.4 11.4
16:25 1021 30.15 850 25.1 9.3 48.7 23 -10.6 12.9
16:30 1021 30.15 850 25.1 9 48.3 24 -10.6 12.9
16:35 1021 30.15 850 25.1 9.9 49.8 20 -11.9 10.6
16:40 1021 30.15 850 25.1 10.9 51.6 20 -11.5 11.3
16:45 1021 30.15 850 25.1 9.5 49.2 19 -13 8.6
16:50 1021 30.15 850 25.1 9.9 49.8 19 -12.9 8.9
16:55 1021 30.15 850 25.1 9.5 49 21 -11.8 10.8
17:00 1021 30.15 850 25.1 8.9 48 21 -12.3 9.8
17:05 1021 30.15 850 25.1 9 48.1 21 -12.4 9.8
17:10 1021 30.15 850 25.1 9.8 49.6 19 -12.8 8.9
17:15 1021 30.15 850 25.1 10.2 50.3 19 -12.5 9.4
17:20 1021 30.15 850 25.1 10.2 50.4 18 -13.1 8.5
17:25 1021 30.15 850 25.1 9.8 49.6 19 -12.9 8.7
17:30 1021 30.15 850 25.1 9.8 49.7 19 -12.9 8.8
17:35 1021 30.15 850 25.1 9.8 49.6 18 -13.4 7.9
17:40 1021 30.15 850 25.1 9.4 48.8 19 -13.4 7.9
17:45 1021 30.15 850 25.1 9.1 48.3 19 -13.4 7.9
17:50 1021 30.15 850 25.1 8.9 48 20 -13 8.6
17:55 1021 30.15 850 25.1 8.9 48 19 -13.5 7.7
18:00 1021 30.15 850 25.1 9.1 48.3 19 -13.7 7.4
18:05 1021 30.15 850 25.1 8.4 47.2 25 -10.7 12.8
18:10 1021 30.15 850 25.1 7.9 46.2 26 -10.7 12.8
18:15 1021 30.15 850 25.1 7.9 46.2 26 -10.6 12.9
18:20 1021 30.15 850 25.1 7.8 46 24 -11.4 11.5
18:25 1021 30.15 850 25.1 8.4 47.1 22 -12.1 10.2
18:30 1021 30.15 850 25.1 8.8 47.9 21 -12.1 10.2
18:35 1021 30.15 850 25.1 9.1 48.4 22 -11.7 11
18:40 1021 30.15 850 25.1 9.1 48.5 22 -11.4 11.5
18:45 1021 30.15 850 25.1 8.8 47.9 22 -12 10.4
18:50 1021 30.15 850 25.1 8.3 47 21 -12.8 8.9
18:55 1021 30.15 850 25.1 8.2 46.8 21 -12.8 8.9
19:00 1021 30.15 850 25.1 8.1 46.5 22 -12.6 9.4
19:05 1021 30.15 850 25.1 7.9 46.1 25 -10.8 12.5
19:10 1021 30.15 850 25.1 7.6 45.8 26 -10.6 12.9
19:15 1021 30.15 850 25.1 7 44.7 28 -10.2 13.6
19:20 1021 30.15 850 25.1 6.7 44 28 -10.5 13.1
19:25 1021 30.15 850 25.1 6.9 44.4 28 -10.4 13.2
19:30 1021 30.15 850 25.1 7.3 45.1 27 -10.5 13.2
19:35 1021 30.15 850 25.1 7.2 44.9 28 -10.1 13.7
19:40 1021 30.15 851 25.13 6.7 44.1 29 -10.3 13.5
19:45 1021 30.15 851 25.13 6.5 43.7 29 -10.5 13.1
19:50 1021 30.15 851 25.13 6.6 43.9 28 -10.5 13.1
19:55 1021 30.15 851 25.13 6.5 43.6 28 -10.6 13
20:00 1022 30.18 851 25.13 6.4 43.6 29 -10.4 13.3
20:05 1022 30.18 851 25.13 6.3 43.3 29 -10.4 13.3
20:10 1022 30.18 851 25.13 6.5 43.6 28 -10.6 12.9
20:15 1022 30.18 851 25.13 6.5 43.7 29 -10.4 13.2
20:20 1022 30.18 851 25.13 6.6 43.8 29 -10.2 13.6
20:25 1022 30.18 851 25.13 6.2 43.2 33 -8.8 16.1
20:30 1022 30.18 851 25.13 5.3 41.6 35 -8.8 16.2
20:35 1022 30.18 851 25.13 5.4 41.7 35 -8.9 16
20:40 1022 30.18 851 25.13 5.3 41.5 35 -9.1 15.6
20:45 1022 30.18 851 25.13 5.1 41.2 36 -8.8 16.1
20:50 1022 30.18 851 25.13 5.1 41.2 35 -9 15.9
20:55 1022 30.18 851 25.13 5 41.1 36 -8.8 16.1
21:00 1022 30.18 851 25.13 4.8 40.7 37 -8.7 16.3
21:05 1022 30.18 851 25.13 4.4 39.9 38 -8.7 16.4
21:10 1022 30.18 851 25.13 4.2 39.6 39 -8.6 16.5
21:15 1022 30.18 851 25.13 3.9 39 41 -8.3 17
21:20 1022 30.18 851 25.13 3.9 39 39 -8.7 16.3
21:25 1022 30.18 851 25.13 4 39.1 39 -8.7 16.4
21:30 1022 30.18 851 25.13 3.9 39 40 -8.4 16.8
21:35 1022 30.18 851 25.13 3.7 38.6 42 -8.2 17.3
21:40 1022 30.18 851 25.13 3.5 38.3 41 -8.5 16.8
21:45 1022 30.18 851 25.13 3.4 38.1 42 -8.2 17.3
21:50 1022 30.18 851 25.13 3.2 37.8 43 -8 17.6
21:55 1022 30.18 851 25.13 3.1 37.6 43 -8.3 17.1
22:00 1022 30.18 851 25.13 3.2 37.7 44 -8 17.6
22:05 1022 30.18 851 25.13 3 37.5 44 -7.9 17.8
22:10 1022 30.18 851 25.13 2.9 37.2 45 -7.9 17.8
22:15 1022 30.18 851 25.13 2.7 36.9 46 -7.8 17.9
22:20 1022 30.18 851 25.13 2.8 37 45 -8 17.5
22:25 1022 30.18 851 25.13 3 37.3 45 -7.7 18.1
22:30 1022 30.18 851 25.13 2.8 37 46 -7.8 17.9
22:35 1022 30.18 852 25.16 2.8 37 46 -7.6 18.3
22:40 1022 30.18 851 25.13 2.5 36.5 49 -7.2 19.1
22:45 1022 30.18 851 25.13 2.1 35.7 51 -7.1 19.3
22:50 1022 30.18 851 25.13 1.9 35.5 50 -7.5 18.6
22:55 1022 30.18 851 25.13 1.7 35.1 49 -7.8 17.9
23:00 1022 30.18 851 25.13 1.7 35 50 -7.7 18.1
23:05 1022 30.18 851 25.13 1.7 35 49 -7.8 17.9
23:10 1022 30.18 851 25.13 1.6 34.9 50 -7.7 18.1
23:15 1022 30.18 851 25.13 1.5 34.6 50 -7.8 17.9
23:20 1022 30.18 851 25.13 1.4 34.5 50 -8.1 17.5
23:25 1022 30.18 851 25.13 1.4 34.6 49 -8.3 17.1
23:30 1022 30.18 851 25.13 1.6 34.9 48 -8.3 17.1
23:35 1022 30.18 851 25.13 1.5 34.7 48 -8.2 17.2
23:40 1022 30.18 851 25.13 1.5 34.6 48 -8.5 16.7
23:45 1022 30.18 851 25.13 1.5 34.7 48 -8.3 17
23:50 1022 30.18 851 25.13 1.6 34.9 47 -8.4 16.9
23:55 1022 30.18 851 25.13 1.7 35.1 47 -8.5 16.7
24:00 1022 30.18 851 25.13 1.7 35.1 47 -8.4 16.9